createdAt,value
2022-11-13T00:00:27.592Z,18.75
2022-11-13T00:03:13.888Z,16.83
2022-11-13T00:06:01.015Z,17.55
2022-11-13T00:08:48.358Z,16.40
2022-11-13T00:11:35.031Z,17.30
2022-11-13T00:14:21.854Z,16.63
2022-11-13T00:17:09.653Z,16.70
2022-11-13T00:19:56.195Z,16.15
2022-11-13T00:22:42.499Z,17.08
2022-11-13T00:25:28.782Z,16.20
2022-11-13T00:28:15.154Z,15.60
2022-11-13T00:31:03.257Z,15.85
2022-11-13T00:36:58.266Z,15.20
2022-11-13T00:39:44.488Z,15.38
2022-11-13T00:42:30.881Z,14.57
2022-11-13T00:45:17.395Z,14.43
2022-11-13T00:48:04.054Z,14.65
2022-11-13T00:50:52.340Z,15.00
2022-11-13T00:53:38.768Z,14.43
2022-11-13T00:56:25.732Z,14.73
2022-11-13T00:59:12.362Z,13.68
2022-11-13T01:01:58.902Z,13.93
2022-11-13T01:04:45.900Z,13.65
2022-11-13T01:07:33.854Z,13.50
2022-11-13T01:10:20.474Z,13.95
2022-11-13T01:13:07.150Z,12.82
2022-11-13T01:15:53.917Z,14.35
2022-11-13T01:18:41.255Z,13.13
2022-11-13T01:21:29.146Z,13.25
2022-11-13T01:24:16.784Z,14.88
2022-11-13T01:27:03.601Z,14.18
2022-11-13T01:29:49.920Z,14.18
2022-11-13T01:32:36.283Z,13.65
2022-11-13T01:35:22.579Z,13.13
2022-11-13T01:38:08.831Z,13.18
2022-11-13T01:40:56.637Z,13.65
2022-11-13T01:43:43.053Z,13.95
2022-11-13T01:46:32.906Z,12.82
2022-11-13T01:49:30.162Z,13.52
2022-11-13T01:52:21.078Z,14.13
2022-11-13T01:55:12.161Z,14.30
2022-11-13T01:58:00.992Z,13.15
2022-11-13T02:00:47.712Z,13.80
2022-11-13T02:03:33.952Z,13.13
2022-11-13T02:06:21.658Z,13.88
2022-11-13T02:09:09.365Z,13.27
2022-11-13T02:11:56.832Z,13.63
2022-11-13T02:14:47.288Z,12.32
2022-11-13T02:17:41.197Z,12.60
2022-11-13T02:23:26.007Z,12.30
2022-11-13T02:28:59.851Z,11.73
2022-11-13T02:31:46.235Z,12.05
2022-11-13T02:34:32.509Z,11.32
2022-11-13T02:37:19.062Z,11.88
2022-11-13T02:40:06.775Z,12.23
2022-11-13T02:42:54.390Z,11.38
2022-11-13T02:45:40.704Z,10.75
2022-11-13T02:48:27.448Z,11.90
2022-11-13T02:51:14.291Z,11.82
2022-11-13T02:54:01.068Z,11.80
2022-11-13T02:56:47.831Z,11.27
2022-11-13T02:59:35.427Z,11.05
2022-11-13T03:02:22.056Z,10.13
2022-11-13T03:05:13.702Z,11.10
2022-11-13T03:08:00.690Z,11.05
2022-11-13T03:10:47.264Z,9.93
2022-11-13T03:13:33.821Z,10.73
2022-11-13T03:16:21.600Z,10.75
2022-11-13T03:19:08.047Z,10.93
2022-11-13T03:21:54.310Z,10.98
2022-11-13T03:24:40.660Z,10.75
2022-11-13T03:27:26.865Z,10.13
2022-11-13T03:30:13.667Z,10.25
2022-11-13T03:33:01.367Z,9.40
2022-11-13T03:35:49.048Z,10.40
2022-11-13T03:38:36.357Z,9.80
2022-11-13T03:41:23.461Z,10.00
2022-11-13T03:44:10.418Z,9.73
2022-11-13T03:46:56.975Z,9.70
2022-11-13T03:49:44.648Z,9.25
2022-11-13T03:52:31.479Z,8.73
2022-11-13T03:55:18.003Z,9.63
2022-11-13T03:58:04.662Z,9.20
2022-11-13T04:00:51.478Z,9.63
2022-11-13T04:03:37.856Z,8.73
2022-11-13T04:06:25.591Z,8.32
2022-11-13T04:09:12.202Z,8.85
2022-11-13T04:11:58.881Z,8.63
2022-11-13T04:14:45.143Z,8.98
2022-11-13T04:17:31.492Z,9.05
2022-11-13T04:20:18.346Z,8.82
2022-11-13T04:23:07.913Z,8.93
2022-11-13T04:25:54.242Z,9.48
2022-11-13T04:28:40.666Z,9.13
2022-11-13T04:31:27.131Z,9.55
2022-11-13T04:34:13.649Z,9.32
2022-11-13T04:37:00.648Z,9.30
2022-11-13T04:39:48.609Z,9.50
2022-11-13T04:42:49.021Z,8.82
2022-11-13T04:45:36.255Z,9.05
2022-11-13T04:48:22.459Z,9.15
2022-11-13T04:51:08.870Z,8.85
2022-11-13T04:53:55.609Z,10.13
2022-11-13T04:56:43.323Z,9.25
2022-11-13T04:59:29.685Z,9.25
2022-11-13T05:02:15.999Z,9.38
2022-11-13T05:05:05.261Z,9.68
2022-11-13T05:07:51.854Z,8.35
2022-11-13T05:10:38.179Z,8.77
2022-11-13T05:13:26.026Z,8.55
2022-11-13T05:16:15.073Z,8.95
2022-11-13T05:19:02.028Z,8.73
2022-11-13T05:21:48.555Z,8.82
2022-11-13T05:24:34.715Z,8.57
2022-11-13T05:27:21.139Z,9.07
2022-11-13T05:30:10.325Z,9.38
2022-11-13T05:32:56.777Z,9.38
2022-11-13T05:35:42.942Z,8.55
2022-11-13T05:38:30.275Z,9.27
2022-11-13T05:41:19.038Z,9.50
2022-11-13T05:44:05.763Z,8.88
2022-11-13T05:46:53.868Z,8.75
2022-11-13T05:49:40.324Z,8.48
2022-11-13T05:52:26.578Z,8.75
2022-11-13T05:55:13.063Z,8.55
2022-11-13T05:58:00.033Z,10.43
2022-11-13T06:00:46.684Z,9.63
2022-11-13T06:03:34.804Z,8.70
2022-11-13T06:06:23.825Z,8.50
2022-11-13T06:09:11.362Z,9.05
2022-11-13T06:11:57.808Z,10.10
2022-11-13T06:14:44.207Z,9.68
2022-11-13T06:17:30.623Z,9.35
2022-11-13T06:20:18.544Z,9.80
2022-11-13T06:23:05.120Z,9.95
2022-11-13T06:25:51.706Z,10.70
2022-11-13T06:28:38.780Z,12.27
2022-11-13T06:31:27.566Z,12.52
2022-11-13T06:34:14.300Z,12.95
2022-11-13T06:37:02.039Z,12.98
2022-11-13T06:39:48.414Z,13.85
2022-11-13T06:42:34.883Z,14.68
2022-11-13T06:45:21.212Z,14.90
2022-11-13T06:48:08.173Z,16.55
2022-11-13T06:50:54.852Z,16.05
2022-11-13T06:53:43.095Z,16.55
2022-11-13T06:56:29.653Z,16.20
2022-11-13T06:59:16.059Z,16.02
2022-11-13T07:02:02.384Z,15.00
2022-11-13T07:04:48.626Z,14.73
2022-11-13T07:07:34.914Z,14.60
2022-11-13T07:10:22.448Z,13.00
2022-11-13T07:13:09.840Z,13.45
2022-11-13T07:15:56.368Z,13.38
2022-11-13T07:18:43.037Z,13.30
2022-11-13T07:21:29.330Z,13.30
2022-11-13T07:24:17.215Z,12.73
2022-11-13T07:27:05.370Z,12.55
2022-11-13T07:29:51.991Z,11.98
2022-11-13T07:32:38.187Z,11.57
2022-11-13T07:35:24.504Z,11.00
2022-11-13T07:38:10.816Z,11.25
2022-11-13T07:40:59.519Z,11.27
2022-11-13T07:43:47.295Z,10.32
2022-11-13T07:46:33.620Z,12.10
2022-11-13T07:49:19.841Z,11.85
2022-11-13T07:52:06.519Z,11.30
2022-11-13T07:54:53.103Z,11.30
2022-11-13T07:57:39.364Z,10.85
2022-11-13T08:00:27.673Z,11.73
2022-11-13T08:03:16.633Z,11.13
2022-11-13T08:06:05.136Z,12.77
2022-11-13T08:08:51.626Z,12.32
2022-11-13T08:11:38.007Z,11.93
2022-11-13T08:14:24.730Z,12.05
2022-11-13T08:17:12.478Z,13.43
2022-11-13T08:19:58.901Z,12.30
2022-11-13T08:22:45.326Z,12.50
2022-11-13T08:25:33.133Z,13.73
2022-11-13T08:28:19.784Z,12.57
2022-11-13T08:31:06.376Z,13.00
2022-11-13T08:33:54.335Z,11.88
2022-11-13T08:36:40.936Z,13.00
2022-11-13T08:39:27.231Z,11.73
2022-11-13T08:42:13.445Z,13.25
2022-11-13T08:44:59.766Z,13.73
2022-11-13T08:47:46.124Z,12.00
2022-11-13T08:50:34.850Z,12.77
2022-11-13T08:53:21.473Z,12.88
2022-11-13T08:56:08.350Z,12.07
2022-11-13T08:58:54.771Z,12.60
2022-11-13T09:01:41.200Z,13.02
2022-11-13T09:04:28.095Z,13.23
2022-11-13T09:07:16.227Z,14.07
2022-11-13T09:10:02.979Z,12.32
2022-11-13T09:12:49.410Z,12.35
2022-11-13T09:15:38.365Z,12.18
2022-11-13T09:18:24.625Z,13.48
2022-11-13T09:21:11.181Z,12.40
2022-11-13T09:23:59.298Z,11.77
2022-11-13T09:26:45.777Z,13.30
2022-11-13T09:29:32.166Z,12.60
2022-11-13T09:32:18.715Z,12.60
2022-11-13T09:35:05.470Z,13.48
2022-11-13T09:37:53.291Z,12.20
2022-11-13T09:40:47.649Z,12.10
2022-11-13T09:43:37.597Z,11.23
2022-11-13T09:46:36.980Z,10.70
2022-11-13T09:49:28.301Z,12.23
2022-11-13T09:52:20.014Z,12.07
2022-11-13T09:55:07.328Z,10.73
2022-11-13T09:58:03.636Z,11.88
2022-11-13T10:00:50.581Z,11.20
2022-11-13T10:07:01.630Z,11.45
2022-11-13T10:10:06.126Z,10.75
2022-11-13T10:12:57.998Z,10.30
2022-11-13T10:15:46.910Z,10.45
2022-11-13T10:18:37.049Z,10.90
2022-11-13T10:21:42.480Z,10.52
2022-11-13T10:24:34.874Z,9.82
2022-11-13T10:27:21.978Z,9.55
2022-11-13T10:30:16.272Z,8.85
2022-11-13T10:33:05.702Z,9.48
2022-11-13T10:36:00.078Z,8.50
2022-11-13T10:38:50.893Z,10.35
2022-11-13T10:41:47.657Z,9.15
2022-11-13T10:44:35.300Z,8.77
2022-11-13T10:47:56.894Z,9.80
2022-11-13T10:50:32.963Z,10.20
2022-11-13T10:53:20.400Z,9.38
2022-11-13T10:56:15.404Z,8.98
2022-11-13T10:59:04.958Z,9.80
2022-11-13T11:01:51.522Z,9.73
2022-11-13T11:04:39.206Z,9.93
2022-11-13T11:07:25.622Z,9.13
2022-11-13T11:10:24.551Z,10.50
2022-11-13T11:13:14.005Z,9.77
2022-11-13T11:16:04.102Z,8.95
2022-11-13T11:18:55.856Z,9.65
2022-11-13T11:21:45.040Z,9.48
2022-11-13T11:24:37.063Z,9.50
2022-11-13T11:27:29.293Z,9.02
2022-11-13T11:30:21.205Z,8.05
2022-11-13T11:33:15.204Z,8.13
2022-11-13T11:36:09.542Z,8.23
2022-11-13T11:39:06.787Z,8.43
2022-11-13T11:42:02.759Z,8.25
2022-11-13T11:45:01.268Z,7.78
2022-11-13T11:47:48.209Z,8.52
2022-11-13T11:50:39.833Z,7.85
2022-11-13T11:53:37.965Z,8.85
2022-11-13T11:56:32.916Z,8.55
2022-11-13T11:59:46.669Z,8.23
2022-11-13T12:03:14.681Z,9.50
2022-11-13T12:06:10.307Z,10.10
2022-11-13T12:09:04.033Z,8.38
2022-11-13T12:14:49.889Z,8.30
2022-11-13T12:17:50.159Z,8.43
2022-11-13T12:20:44.234Z,9.35
2022-11-13T12:26:29.073Z,9.75
2022-11-13T12:29:35.838Z,9.77
2022-11-13T12:32:38.398Z,8.68
2022-11-13T12:35:27.108Z,8.82
2022-11-13T12:38:24.057Z,9.65
2022-11-13T12:41:17.489Z,9.57
2022-11-13T12:44:21.511Z,11.18
2022-11-13T12:50:03.645Z,9.60
2022-11-13T12:53:00.794Z,9.25
2022-11-13T12:56:00.096Z,10.23
2022-11-13T12:59:23.614Z,10.82
2022-11-13T13:02:28.787Z,11.00
2022-11-13T13:05:25.502Z,10.48
2022-11-13T13:08:31.805Z,9.98
2022-11-13T13:11:26.143Z,10.55
2022-11-13T13:17:23.093Z,10.02
2022-11-13T13:20:31.976Z,10.10
2022-11-13T13:23:28.464Z,10.30
2022-11-13T13:26:21.084Z,10.75
2022-11-13T13:29:19.666Z,10.07
2022-11-13T13:32:20.645Z,10.68
2022-11-13T13:35:16.720Z,10.32
2022-11-13T13:38:12.219Z,10.48
2022-11-13T13:41:16.975Z,10.35
2022-11-13T13:47:00.183Z,10.25
2022-11-13T13:49:47.396Z,10.20
2022-11-13T13:52:37.488Z,10.57
2022-11-13T13:55:29.008Z,10.25
2022-11-13T13:58:18.839Z,10.40
2022-11-13T14:01:22.970Z,10.18
2022-11-13T14:04:15.773Z,11.10
2022-11-13T14:07:03.695Z,10.38
2022-11-13T14:10:04.833Z,10.65
2022-11-13T14:12:51.551Z,10.75
2022-11-13T14:15:38.447Z,10.10
2022-11-13T14:18:24.711Z,9.30
2022-11-13T14:21:16.692Z,10.30
2022-11-13T14:24:03.642Z,10.07
2022-11-13T14:26:55.496Z,11.25
2022-11-13T14:29:47.907Z,9.48
2022-11-13T14:32:44.251Z,9.75
2022-11-13T14:35:33.244Z,8.90
2022-11-13T14:38:22.906Z,10.07
2022-11-13T14:41:21.714Z,9.63
2022-11-13T14:44:12.733Z,10.18
2022-11-13T14:47:01.825Z,9.82
2022-11-13T14:49:48.372Z,9.88
2022-11-13T14:52:34.803Z,10.15
2022-11-13T14:55:23.045Z,11.32
2022-11-13T14:58:14.431Z,10.23
2022-11-13T15:01:16.166Z,10.18
2022-11-13T15:04:03.035Z,10.55
2022-11-13T15:06:50.880Z,9.77
2022-11-13T15:09:37.933Z,10.27
2022-11-13T15:12:24.428Z,10.07
2022-11-13T15:15:15.908Z,9.73
2022-11-13T15:18:04.222Z,11.07
2022-11-13T15:20:50.802Z,10.27
2022-11-13T15:23:37.307Z,10.10
2022-11-13T15:26:24.278Z,10.52
2022-11-13T15:29:11.055Z,10.15
2022-11-13T15:31:58.549Z,11.38
2022-11-13T15:34:46.575Z,11.48
2022-11-13T15:37:33.206Z,10.40
2022-11-13T15:40:19.478Z,11.07
2022-11-13T15:43:06.614Z,11.18
2022-11-13T15:45:53.203Z,10.77
2022-11-13T15:48:39.835Z,11.32
2022-11-13T15:51:34.538Z,10.32
2022-11-13T15:54:27.367Z,10.48
2022-11-13T15:57:20.803Z,11.40
2022-11-13T16:00:15.124Z,11.73
2022-11-13T16:03:04.367Z,11.75
2022-11-13T16:05:51.501Z,11.02
2022-11-13T16:08:39.254Z,11.30
2022-11-13T16:11:25.862Z,11.95
2022-11-13T16:14:12.082Z,12.00
2022-11-13T16:16:58.595Z,11.52
2022-11-13T16:19:45.165Z,12.00
2022-11-13T16:22:31.453Z,11.75
2022-11-13T16:25:21.080Z,12.82
2022-11-13T16:28:14.878Z,11.45
2022-11-13T16:31:01.451Z,12.35
2022-11-13T16:33:47.915Z,11.63
2022-11-13T16:36:34.654Z,12.98
2022-11-13T16:39:21.121Z,12.00
2022-11-13T16:42:08.874Z,11.98
2022-11-13T16:44:55.270Z,12.35
2022-11-13T16:47:42.127Z,12.55
2022-11-13T16:50:31.821Z,11.88
2022-11-13T16:53:19.217Z,11.85
2022-11-13T16:56:13.998Z,11.70
2022-11-13T16:59:02.031Z,12.68
2022-11-13T17:01:48.567Z,12.75
2022-11-13T17:04:35.208Z,14.80
2022-11-13T17:07:22.429Z,14.30
2022-11-13T17:10:30.105Z,14.50
2022-11-13T17:13:17.403Z,13.48
2022-11-13T17:16:05.354Z,13.73
2022-11-13T17:18:53.235Z,13.80
2022-11-13T17:21:43.992Z,13.82
2022-11-13T17:24:31.051Z,14.77
2022-11-13T17:27:17.938Z,13.82
2022-11-13T17:30:05.504Z,14.50
2022-11-13T17:32:53.400Z,14.20
2022-11-13T17:35:40.219Z,15.18
2022-11-13T17:38:27.282Z,15.43
2022-11-13T17:41:15.301Z,15.93
2022-11-13T17:44:01.800Z,15.00
2022-11-13T17:46:49.180Z,17.65
2022-11-13T17:49:36.963Z,16.52
2022-11-13T17:52:23.257Z,17.08
2022-11-13T17:55:12.468Z,16.35
2022-11-13T17:58:00.914Z,15.90
2022-11-13T18:00:47.820Z,15.20
2022-11-13T18:03:34.775Z,15.40
2022-11-13T18:06:23.708Z,15.38
2022-11-13T18:09:10.471Z,16.17
2022-11-13T18:11:57.115Z,18.52
2022-11-13T18:14:43.515Z,16.75
2022-11-13T18:17:29.843Z,16.60
2022-11-13T18:20:16.737Z,16.02
2022-11-13T18:23:04.492Z,16.17
2022-11-13T18:25:52.438Z,17.33
2022-11-13T18:28:40.416Z,16.60
2022-11-13T18:31:26.997Z,17.58
2022-11-13T18:34:17.730Z,18.90
2022-11-13T18:37:04.099Z,20.88
2022-11-13T18:39:51.849Z,16.58
2022-11-13T18:42:38.691Z,17.33
2022-11-13T18:45:25.396Z,18.20
2022-11-13T18:48:11.992Z,16.92
2022-11-13T18:50:59.054Z,17.08
2022-11-13T18:53:48.344Z,16.35
2022-11-13T18:56:36.245Z,16.58
2022-11-13T18:59:22.477Z,16.05
2022-11-13T19:02:10.319Z,17.50
2022-11-13T19:04:56.891Z,17.35
2022-11-13T19:07:43.817Z,15.18
2022-11-13T19:10:30.296Z,16.02
2022-11-13T19:13:18.021Z,16.33
2022-11-13T19:16:05.875Z,16.88
2022-11-13T19:18:54.184Z,17.25
2022-11-13T19:21:40.864Z,16.92
2022-11-13T19:24:27.403Z,14.82
2022-11-13T19:27:14.175Z,15.95
2022-11-13T19:30:01.765Z,15.73
2022-11-13T19:32:48.438Z,15.18
2022-11-13T19:35:34.981Z,16.80
2022-11-13T19:38:21.538Z,17.05
2022-11-13T19:41:09.348Z,16.27
2022-11-13T19:43:57.997Z,15.98
2022-11-13T19:46:46.043Z,15.13
2022-11-13T19:49:34.484Z,14.75
2022-11-13T19:52:21.120Z,16.63
2022-11-13T19:55:07.989Z,15.95
2022-11-13T19:57:54.235Z,15.70
2022-11-13T20:00:40.766Z,16.35
2022-11-13T20:03:28.474Z,15.35
2022-11-13T20:06:16.911Z,15.65
2022-11-13T20:09:04.580Z,15.07
2022-11-13T20:11:50.886Z,15.60
2022-11-13T20:14:38.691Z,16.00
2022-11-13T20:17:25.190Z,14.55
2022-11-13T20:20:13.289Z,15.23
2022-11-13T20:22:59.943Z,15.48
2022-11-13T20:25:52.672Z,14.95
2022-11-13T20:28:39.088Z,15.27
2022-11-13T20:31:27.792Z,15.88
2022-11-13T20:34:15.157Z,14.52
2022-11-13T20:37:03.183Z,14.68
2022-11-13T20:39:49.688Z,15.57
2022-11-13T20:42:36.184Z,16.52
2022-11-13T20:45:22.859Z,16.27
2022-11-13T20:48:09.186Z,16.05
2022-11-13T20:50:55.667Z,16.90
2022-11-13T20:53:43.635Z,16.83
2022-11-13T20:56:30.083Z,16.98
2022-11-13T20:59:16.515Z,17.52
2022-11-13T21:02:02.914Z,17.98
2022-11-13T21:04:49.821Z,17.33
2022-11-13T21:07:36.507Z,17.15
2022-11-13T21:10:24.162Z,17.10
2022-11-13T21:13:10.693Z,17.92
2022-11-13T21:15:57.170Z,18.60
2022-11-13T21:18:44.132Z,20.00
2022-11-13T21:21:30.871Z,18.55
2022-11-13T21:24:17.353Z,17.40
2022-11-13T21:27:05.357Z,17.65
2022-11-13T21:29:51.706Z,17.30
2022-11-13T21:32:38.664Z,19.35
2022-11-13T21:35:25.090Z,17.27
2022-11-13T21:38:11.318Z,18.48
2022-11-13T21:41:21.298Z,19.85
2022-11-13T21:44:10.852Z,18.23
2022-11-13T21:46:57.249Z,19.27
2022-11-13T21:49:43.812Z,20.05
2022-11-13T21:52:30.309Z,18.75
2022-11-13T21:55:17.035Z,20.58
2022-11-13T21:58:03.840Z,20.88
2022-11-13T22:00:51.563Z,20.27
2022-11-13T22:03:38.293Z,21.10
2022-11-13T22:06:26.630Z,21.77
2022-11-13T22:09:15.099Z,23.33
2022-11-13T22:12:01.725Z,24.00
2022-11-13T22:14:48.068Z,24.05
2022-11-13T22:17:35.810Z,23.45
2022-11-13T22:20:22.323Z,24.05
2022-11-13T22:23:09.178Z,23.00
2022-11-13T22:26:01.007Z,27.13
2022-11-13T22:28:48.808Z,26.60
2022-11-13T22:31:36.081Z,25.25
2022-11-13T22:34:24.001Z,27.33
2022-11-13T22:37:10.856Z,27.08
2022-11-13T22:39:57.278Z,28.10
2022-11-13T22:42:43.741Z,26.05
2022-11-13T22:45:30.348Z,26.23
2022-11-13T22:48:16.713Z,28.13
2022-11-13T22:51:09.255Z,28.67
2022-11-13T22:53:57.425Z,30.42
2022-11-13T22:56:43.678Z,27.80
2022-11-13T22:59:29.993Z,28.48
2022-11-13T23:02:16.645Z,28.50
2022-11-13T23:05:03.223Z,28.13
2022-11-13T23:07:50.979Z,29.33
2022-11-13T23:10:37.662Z,28.65
2022-11-13T23:13:24.228Z,29.17
2022-11-13T23:16:11.853Z,29.65
2022-11-13T23:19:00.087Z,28.33
2022-11-13T23:21:48.893Z,29.67
2022-11-13T23:24:36.921Z,29.33
2022-11-13T23:27:23.265Z,28.80
2022-11-13T23:30:11.167Z,30.15
2022-11-13T23:32:57.717Z,29.38
2022-11-13T23:35:44.528Z,31.27
2022-11-13T23:38:31.308Z,29.35
2022-11-13T23:41:19.697Z,28.50
2022-11-13T23:44:09.316Z,27.45
2022-11-13T23:46:56.481Z,28.42
2022-11-13T23:49:42.975Z,30.00
2022-11-13T23:52:29.432Z,28.33
2022-11-13T23:55:16.405Z,29.10
2022-11-13T23:58:05.900Z,28.83
